sensor_id;sensor_type;location;lat;lon;timestamp;P1;durP1;ratioP1;P2;durP2;ratioP2
48613;SDS011;34408;51.426;5.444;2023-02-15T00:01:41;36.22;;;20.48;;
48613;SDS011;34408;51.426;5.444;2023-02-15T00:04:11;36.67;;;21.40;;
48613;SDS011;34408;51.426;5.444;2023-02-15T00:06:41;33.65;;;20.30;;
48613;SDS011;34408;51.426;5.444;2023-02-15T00:09:09;36.72;;;19.65;;
48613;SDS011;34408;51.426;5.444;2023-02-15T00:11:37;31.70;;;19.83;;
48613;SDS011;34408;51.426;5.444;2023-02-15T00:14:09;36.90;;;19.88;;
48613;SDS011;34408;51.426;5.444;2023-02-15T00:16:39;31.92;;;19.48;;
48613;SDS011;34408;51.426;5.444;2023-02-15T00:19:09;33.28;;;19.48;;
48613;SDS011;34408;51.426;5.444;2023-02-15T00:21:39;36.85;;;20.92;;
48613;SDS011;34408;51.426;5.444;2023-02-15T00:24:08;36.22;;;19.77;;
48613;SDS011;34408;51.426;5.444;2023-02-15T00:26:38;34.88;;;20.58;;
48613;SDS011;34408;51.426;5.444;2023-02-15T00:29:07;38.00;;;21.85;;
48613;SDS011;34408;51.426;5.444;2023-02-15T00:31:36;34.75;;;19.70;;
48613;SDS011;34408;51.426;5.444;2023-02-15T00:34:05;37.05;;;21.77;;
48613;SDS011;34408;51.426;5.444;2023-02-15T00:36:36;32.22;;;19.90;;
48613;SDS011;34408;51.426;5.444;2023-02-15T00:39:04;33.63;;;19.30;;
48613;SDS011;34408;51.426;5.444;2023-02-15T00:41:32;32.70;;;19.73;;
48613;SDS011;34408;51.426;5.444;2023-02-15T00:44:01;36.63;;;20.30;;
48613;SDS011;34408;51.426;5.444;2023-02-15T00:46:29;33.03;;;21.08;;
48613;SDS011;34408;51.426;5.444;2023-02-15T00:48:57;34.63;;;20.23;;
48613;SDS011;34408;51.426;5.444;2023-02-15T00:51:24;37.05;;;20.05;;
48613;SDS011;34408;51.426;5.444;2023-02-15T00:53:53;34.97;;;20.67;;
48613;SDS011;34408;51.426;5.444;2023-02-15T00:56:21;33.67;;;19.30;;
48613;SDS011;34408;51.426;5.444;2023-02-15T00:58:49;34.70;;;19.63;;
48613;SDS011;34408;51.426;5.444;2023-02-15T01:01:17;33.67;;;20.13;;
48613;SDS011;34408;51.426;5.444;2023-02-15T01:03:47;36.53;;;19.45;;
48613;SDS011;34408;51.426;5.444;2023-02-15T01:06:15;32.22;;;19.90;;
48613;SDS011;34408;51.426;5.444;2023-02-15T01:08:44;36.15;;;20.45;;
48613;SDS011;34408;51.426;5.444;2023-02-15T01:11:14;31.92;;;19.95;;
48613;SDS011;34408;51.426;5.444;2023-02-15T01:13:48;32.00;;;19.15;;
48613;SDS011;34408;51.426;5.444;2023-02-15T01:16:16;29.63;;;18.45;;
48613;SDS011;34408;51.426;5.444;2023-02-15T01:18:44;31.73;;;18.83;;
48613;SDS011;34408;51.426;5.444;2023-02-15T01:21:13;34.22;;;18.20;;
48613;SDS011;34408;51.426;5.444;2023-02-15T01:23:42;34.58;;;18.35;;
48613;SDS011;34408;51.426;5.444;2023-02-15T01:26:10;33.38;;;18.85;;
48613;SDS011;34408;51.426;5.444;2023-02-15T01:28:40;31.95;;;18.67;;
48613;SDS011;34408;51.426;5.444;2023-02-15T01:31:08;35.17;;;18.15;;
48613;SDS011;34408;51.426;5.444;2023-02-15T01:33:38;34.67;;;17.88;;
48613;SDS011;34408;51.426;5.444;2023-02-15T01:36:06;29.67;;;17.15;;
48613;SDS011;34408;51.426;5.444;2023-02-15T01:38:34;30.42;;;18.48;;
48613;SDS011;34408;51.426;5.444;2023-02-15T01:41:02;33.28;;;19.08;;
48613;SDS011;34408;51.426;5.444;2023-02-15T01:43:54;31.63;;;17.92;;
48613;SDS011;34408;51.426;5.444;2023-02-15T01:46:25;32.88;;;17.17;;
48613;SDS011;34408;51.426;5.444;2023-02-15T01:49:00;26.88;;;16.50;;
48613;SDS011;34408;51.426;5.444;2023-02-15T01:51:31;30.60;;;17.20;;
48613;SDS011;34408;51.426;5.444;2023-02-15T01:54:03;35.92;;;16.27;;
48613;SDS011;34408;51.426;5.444;2023-02-15T01:56:37;27.90;;;16.42;;
48613;SDS011;34408;51.426;5.444;2023-02-15T01:59:11;29.20;;;17.27;;
48613;SDS011;34408;51.426;5.444;2023-02-15T02:01:42;29.63;;;18.02;;
48613;SDS011;34408;51.426;5.444;2023-02-15T02:04:12;32.28;;;17.73;;
48613;SDS011;34408;51.426;5.444;2023-02-15T02:06:44;29.35;;;15.73;;
48613;SDS011;34408;51.426;5.444;2023-02-15T02:09:15;25.05;;;16.08;;
48613;SDS011;34408;51.426;5.444;2023-02-15T02:11:43;29.83;;;16.08;;
48613;SDS011;34408;51.426;5.444;2023-02-15T02:14:14;27.60;;;15.88;;
48613;SDS011;34408;51.426;5.444;2023-02-15T02:16:45;29.65;;;15.93;;
48613;SDS011;34408;51.426;5.444;2023-02-15T02:19:24;27.60;;;16.10;;
48613;SDS011;34408;51.426;5.444;2023-02-15T02:25:25;23.98;;;15.10;;
48613;SDS011;34408;51.426;5.444;2023-02-15T02:28:12;29.95;;;16.33;;
48613;SDS011;34408;51.426;5.444;2023-02-15T02:30:58;27.75;;;16.65;;
48613;SDS011;34408;51.426;5.444;2023-02-15T02:33:44;25.98;;;16.45;;
48613;SDS011;34408;51.426;5.444;2023-02-15T02:36:24;25.48;;;15.65;;
48613;SDS011;34408;51.426;5.444;2023-02-15T02:39:10;25.88;;;15.65;;
48613;SDS011;34408;51.426;5.444;2023-02-15T02:41:49;22.30;;;14.88;;
48613;SDS011;34408;51.426;5.444;2023-02-15T02:44:24;25.27;;;15.80;;
48613;SDS011;34408;51.426;5.444;2023-02-15T02:46:57;26.65;;;14.30;;
48613;SDS011;34408;51.426;5.444;2023-02-15T02:49:32;24.83;;;15.23;;
48613;SDS011;34408;51.426;5.444;2023-02-15T02:52:01;25.52;;;14.95;;
48613;SDS011;34408;51.426;5.444;2023-02-15T02:54:30;24.52;;;14.68;;
48613;SDS011;34408;51.426;5.444;2023-02-15T02:57:02;25.20;;;14.70;;
48613;SDS011;34408;51.426;5.444;2023-02-15T02:59:33;24.20;;;14.25;;
48613;SDS011;34408;51.426;5.444;2023-02-15T03:02:07;26.48;;;15.50;;
48613;SDS011;34408;51.426;5.444;2023-02-15T03:04:43;22.73;;;14.63;;
48613;SDS011;34408;51.426;5.444;2023-02-15T03:07:15;26.92;;;14.80;;
48613;SDS011;34408;51.426;5.444;2023-02-15T03:09:49;24.27;;;15.55;;
48613;SDS011;34408;51.426;5.444;2023-02-15T03:12:19;23.00;;;14.82;;
48613;SDS011;34408;51.426;5.444;2023-02-15T03:14:50;24.98;;;15.05;;
48613;SDS011;34408;51.426;5.444;2023-02-15T03:17:21;22.10;;;14.07;;
48613;SDS011;34408;51.426;5.444;2023-02-15T03:19:53;25.67;;;14.38;;
48613;SDS011;34408;51.426;5.444;2023-02-15T03:22:25;25.35;;;14.15;;
48613;SDS011;34408;51.426;5.444;2023-02-15T03:24:56;22.70;;;15.00;;
48613;SDS011;34408;51.426;5.444;2023-02-15T03:27:27;24.83;;;14.57;;
48613;SDS011;34408;51.426;5.444;2023-02-15T03:30:00;25.58;;;14.55;;
48613;SDS011;34408;51.426;5.444;2023-02-15T03:32:32;22.83;;;14.07;;
48613;SDS011;34408;51.426;5.444;2023-02-15T03:35:03;25.00;;;14.25;;
48613;SDS011;34408;51.426;5.444;2023-02-15T03:37:32;25.02;;;15.23;;
48613;SDS011;34408;51.426;5.444;2023-02-15T03:40:06;25.58;;;15.48;;
48613;SDS011;34408;51.426;5.444;2023-02-15T03:42:53;24.90;;;14.57;;
48613;SDS011;34408;51.426;5.444;2023-02-15T03:45:29;23.88;;;14.13;;
48613;SDS011;34408;51.426;5.444;2023-02-15T03:48:00;22.00;;;13.77;;
48613;SDS011;34408;51.426;5.444;2023-02-15T03:50:32;22.77;;;13.45;;
48613;SDS011;34408;51.426;5.444;2023-02-15T03:53:21;24.23;;;14.55;;
48613;SDS011;34408;51.426;5.444;2023-02-15T03:55:53;25.75;;;15.18;;
48613;SDS011;34408;51.426;5.444;2023-02-15T03:58:21;26.30;;;14.30;;
48613;SDS011;34408;51.426;5.444;2023-02-15T04:01:10;22.60;;;12.82;;
48613;SDS011;34408;51.426;5.444;2023-02-15T04:03:59;27.23;;;13.95;;
48613;SDS011;34408;51.426;5.444;2023-02-15T04:06:31;25.38;;;13.25;;
48613;SDS011;34408;51.426;5.444;2023-02-15T04:08:59;24.85;;;13.88;;
48613;SDS011;34408;51.426;5.444;2023-02-15T04:11:44;20.65;;;12.98;;
48613;SDS011;34408;51.426;5.444;2023-02-15T04:14:12;23.13;;;14.07;;
48613;SDS011;34408;51.426;5.444;2023-02-15T04:16:57;25.27;;;14.38;;
48613;SDS011;34408;51.426;5.444;2023-02-15T04:19:25;25.27;;;14.05;;
48613;SDS011;34408;51.426;5.444;2023-02-15T04:22:12;22.55;;;13.65;;
48613;SDS011;34408;51.426;5.444;2023-02-15T04:24:57;23.02;;;14.15;;
48613;SDS011;34408;51.426;5.444;2023-02-15T04:27:38;20.83;;;13.20;;
48613;SDS011;34408;51.426;5.444;2023-02-15T04:30:06;21.52;;;12.88;;
48613;SDS011;34408;51.426;5.444;2023-02-15T04:32:35;22.63;;;14.32;;
48613;SDS011;34408;51.426;5.444;2023-02-15T04:35:04;22.88;;;12.65;;
48613;SDS011;34408;51.426;5.444;2023-02-15T04:37:34;20.15;;;12.70;;
48613;SDS011;34408;51.426;5.444;2023-02-15T04:40:02;20.60;;;12.88;;
48613;SDS011;34408;51.426;5.444;2023-02-15T04:42:30;21.73;;;12.82;;
48613;SDS011;34408;51.426;5.444;2023-02-15T04:44:58;19.88;;;13.05;;
48613;SDS011;34408;51.426;5.444;2023-02-15T04:47:26;19.88;;;13.10;;
48613;SDS011;34408;51.426;5.444;2023-02-15T04:49:53;22.45;;;12.32;;
48613;SDS011;34408;51.426;5.444;2023-02-15T04:52:23;20.02;;;12.45;;
48613;SDS011;34408;51.426;5.444;2023-02-15T04:54:52;21.55;;;13.18;;
48613;SDS011;34408;51.426;5.444;2023-02-15T04:57:20;25.60;;;13.50;;
48613;SDS011;34408;51.426;5.444;2023-02-15T04:59:48;20.58;;;12.98;;
48613;SDS011;34408;51.426;5.444;2023-02-15T05:02:16;20.50;;;12.57;;
48613;SDS011;34408;51.426;5.444;2023-02-15T05:04:43;20.80;;;12.90;;
48613;SDS011;34408;51.426;5.444;2023-02-15T05:07:11;19.92;;;12.80;;
48613;SDS011;34408;51.426;5.444;2023-02-15T05:09:40;20.20;;;11.82;;
48613;SDS011;34408;51.426;5.444;2023-02-15T05:12:09;21.65;;;13.60;;
48613;SDS011;34408;51.426;5.444;2023-02-15T05:14:37;21.05;;;12.80;;
48613;SDS011;34408;51.426;5.444;2023-02-15T05:17:05;20.52;;;12.23;;
48613;SDS011;34408;51.426;5.444;2023-02-15T05:19:33;19.60;;;12.45;;
48613;SDS011;34408;51.426;5.444;2023-02-15T05:22:00;19.10;;;12.70;;
48613;SDS011;34408;51.426;5.444;2023-02-15T05:24:28;19.05;;;12.98;;
48613;SDS011;34408;51.426;5.444;2023-02-15T05:27:15;20.77;;;11.88;;
48613;SDS011;34408;51.426;5.444;2023-02-15T05:30:00;18.83;;;11.93;;
48613;SDS011;34408;51.426;5.444;2023-02-15T05:32:28;21.90;;;13.95;;
48613;SDS011;34408;51.426;5.444;2023-02-15T05:34:56;20.70;;;12.48;;
48613;SDS011;34408;51.426;5.444;2023-02-15T05:37:24;19.38;;;12.68;;
48613;SDS011;34408;51.426;5.444;2023-02-15T05:39:52;20.25;;;13.15;;
48613;SDS011;34408;51.426;5.444;2023-02-15T05:42:21;19.58;;;13.23;;
48613;SDS011;34408;51.426;5.444;2023-02-15T05:44:49;24.00;;;13.93;;
48613;SDS011;34408;51.426;5.444;2023-02-15T05:47:17;23.00;;;13.55;;
48613;SDS011;34408;51.426;5.444;2023-02-15T05:49:44;20.08;;;12.57;;
48613;SDS011;34408;51.426;5.444;2023-02-15T05:52:12;20.23;;;12.50;;
48613;SDS011;34408;51.426;5.444;2023-02-15T05:54:40;23.48;;;12.10;;
48613;SDS011;34408;51.426;5.444;2023-02-15T05:57:08;21.50;;;13.18;;
48613;SDS011;34408;51.426;5.444;2023-02-15T05:59:37;22.27;;;13.98;;
48613;SDS011;34408;51.426;5.444;2023-02-15T06:02:04;22.92;;;13.23;;
48613;SDS011;34408;51.426;5.444;2023-02-15T06:04:34;19.02;;;12.25;;
48613;SDS011;34408;51.426;5.444;2023-02-15T06:07:02;20.90;;;12.80;;
48613;SDS011;34408;51.426;5.444;2023-02-15T06:09:30;25.48;;;12.95;;
48613;SDS011;34408;51.426;5.444;2023-02-15T06:11:57;22.35;;;13.60;;
48613;SDS011;34408;51.426;5.444;2023-02-15T06:14:25;19.80;;;12.73;;
48613;SDS011;34408;51.426;5.444;2023-02-15T06:16:54;24.98;;;13.25;;
48613;SDS011;34408;51.426;5.444;2023-02-15T06:19:22;23.25;;;13.15;;
48613;SDS011;34408;51.426;5.444;2023-02-15T06:21:50;21.50;;;12.18;;
48613;SDS011;34408;51.426;5.444;2023-02-15T06:24:18;25.00;;;13.15;;
48613;SDS011;34408;51.426;5.444;2023-02-15T06:26:45;21.17;;;11.75;;
48613;SDS011;34408;51.426;5.444;2023-02-15T06:29:13;25.42;;;13.27;;
48613;SDS011;34408;51.426;5.444;2023-02-15T06:31:41;20.67;;;12.82;;
48613;SDS011;34408;51.426;5.444;2023-02-15T06:34:10;21.77;;;12.45;;
48613;SDS011;34408;51.426;5.444;2023-02-15T06:36:39;18.73;;;12.77;;
48613;SDS011;34408;51.426;5.444;2023-02-15T06:39:06;23.20;;;13.02;;
48613;SDS011;34408;51.426;5.444;2023-02-15T06:41:34;20.63;;;12.75;;
48613;SDS011;34408;51.426;5.444;2023-02-15T06:44:02;23.55;;;13.05;;
48613;SDS011;34408;51.426;5.444;2023-02-15T06:46:30;21.98;;;12.65;;
48613;SDS011;34408;51.426;5.444;2023-02-15T06:48:58;23.20;;;12.68;;
48613;SDS011;34408;51.426;5.444;2023-02-15T06:51:27;22.38;;;11.80;;
48613;SDS011;34408;51.426;5.444;2023-02-15T06:53:55;25.63;;;13.15;;
48613;SDS011;34408;51.426;5.444;2023-02-15T06:56:23;20.42;;;12.82;;
48613;SDS011;34408;51.426;5.444;2023-02-15T06:58:50;20.42;;;12.73;;
48613;SDS011;34408;51.426;5.444;2023-02-15T07:01:19;25.27;;;13.38;;
48613;SDS011;34408;51.426;5.444;2023-02-15T07:03:46;24.38;;;12.95;;
48613;SDS011;34408;51.426;5.444;2023-02-15T07:06:14;20.27;;;12.40;;
48613;SDS011;34408;51.426;5.444;2023-02-15T07:08:43;23.95;;;14.13;;
48613;SDS011;34408;51.426;5.444;2023-02-15T07:11:11;19.52;;;12.88;;
48613;SDS011;34408;51.426;5.444;2023-02-15T07:13:56;20.38;;;13.00;;
48613;SDS011;34408;51.426;5.444;2023-02-15T07:16:24;22.83;;;12.60;;
48613;SDS011;34408;51.426;5.444;2023-02-15T07:18:52;22.10;;;13.13;;
48613;SDS011;34408;51.426;5.444;2023-02-15T07:21:20;20.63;;;13.07;;
48613;SDS011;34408;51.426;5.444;2023-02-15T07:23:49;23.88;;;13.70;;
48613;SDS011;34408;51.426;5.444;2023-02-15T07:26:17;21.15;;;13.88;;
48613;SDS011;34408;51.426;5.444;2023-02-15T07:28:44;22.95;;;13.60;;
48613;SDS011;34408;51.426;5.444;2023-02-15T07:31:12;25.52;;;13.73;;
48613;SDS011;34408;51.426;5.444;2023-02-15T07:33:40;22.40;;;14.48;;
48613;SDS011;34408;51.426;5.444;2023-02-15T07:36:08;23.13;;;13.63;;
48613;SDS011;34408;51.426;5.444;2023-02-15T07:38:39;22.77;;;13.65;;
48613;SDS011;34408;51.426;5.444;2023-02-15T07:41:09;22.23;;;13.13;;
48613;SDS011;34408;51.426;5.444;2023-02-15T07:43:39;22.20;;;13.70;;
48613;SDS011;34408;51.426;5.444;2023-02-15T07:46:09;21.50;;;13.48;;
48613;SDS011;34408;51.426;5.444;2023-02-15T07:48:38;24.95;;;13.38;;
48613;SDS011;34408;51.426;5.444;2023-02-15T07:51:07;21.33;;;12.93;;
48613;SDS011;34408;51.426;5.444;2023-02-15T07:53:37;22.10;;;13.82;;
48613;SDS011;34408;51.426;5.444;2023-02-15T07:56:07;21.70;;;13.73;;
48613;SDS011;34408;51.426;5.444;2023-02-15T07:58:38;23.48;;;14.10;;
48613;SDS011;34408;51.426;5.444;2023-02-15T08:01:19;20.90;;;13.82;;
48613;SDS011;34408;51.426;5.444;2023-02-15T08:03:48;21.75;;;13.48;;
48613;SDS011;34408;51.426;5.444;2023-02-15T08:06:16;22.23;;;12.65;;
48613;SDS011;34408;51.426;5.444;2023-02-15T08:08:44;21.92;;;13.43;;
48613;SDS011;34408;51.426;5.444;2023-02-15T08:11:17;23.70;;;13.35;;
48613;SDS011;34408;51.426;5.444;2023-02-15T08:13:55;23.83;;;13.63;;
48613;SDS011;34408;51.426;5.444;2023-02-15T08:16:26;23.80;;;14.27;;
48613;SDS011;34408;51.426;5.444;2023-02-15T08:18:57;19.20;;;12.38;;
48613;SDS011;34408;51.426;5.444;2023-02-15T08:21:26;22.70;;;13.35;;
48613;SDS011;34408;51.426;5.444;2023-02-15T08:23:55;22.70;;;13.52;;
48613;SDS011;34408;51.426;5.444;2023-02-15T08:26:25;24.77;;;14.57;;
48613;SDS011;34408;51.426;5.444;2023-02-15T08:28:53;20.60;;;13.60;;
48613;SDS011;34408;51.426;5.444;2023-02-15T08:31:22;23.30;;;15.02;;
48613;SDS011;34408;51.426;5.444;2023-02-15T08:33:51;21.48;;;13.80;;
48613;SDS011;34408;51.426;5.444;2023-02-15T08:36:20;24.40;;;13.82;;
48613;SDS011;34408;51.426;5.444;2023-02-15T08:38:49;20.48;;;13.43;;
48613;SDS011;34408;51.426;5.444;2023-02-15T08:41:18;21.65;;;14.20;;
48613;SDS011;34408;51.426;5.444;2023-02-15T08:43:49;24.45;;;14.32;;
48613;SDS011;34408;51.426;5.444;2023-02-15T08:46:20;24.55;;;14.48;;
48613;SDS011;34408;51.426;5.444;2023-02-15T08:48:49;24.00;;;14.68;;
48613;SDS011;34408;51.426;5.444;2023-02-15T08:51:18;24.48;;;14.05;;
48613;SDS011;34408;51.426;5.444;2023-02-15T08:53:48;23.65;;;14.35;;
48613;SDS011;34408;51.426;5.444;2023-02-15T08:56:17;22.40;;;13.88;;
48613;SDS011;34408;51.426;5.444;2023-02-15T08:58:46;23.40;;;14.00;;
48613;SDS011;34408;51.426;5.444;2023-02-15T09:01:16;23.70;;;13.82;;
48613;SDS011;34408;51.426;5.444;2023-02-15T09:03:48;24.10;;;14.32;;
48613;SDS011;34408;51.426;5.444;2023-02-15T09:06:19;24.65;;;13.80;;
48613;SDS011;34408;51.426;5.444;2023-02-15T09:08:48;21.95;;;13.77;;
48613;SDS011;34408;51.426;5.444;2023-02-15T09:11:17;24.77;;;14.35;;
48613;SDS011;34408;51.426;5.444;2023-02-15T09:13:51;23.90;;;14.07;;
48613;SDS011;34408;51.426;5.444;2023-02-15T09:16:22;23.17;;;14.15;;
48613;SDS011;34408;51.426;5.444;2023-02-15T09:18:51;20.20;;;12.90;;
48613;SDS011;34408;51.426;5.444;2023-02-15T09:21:20;22.75;;;13.75;;
48613;SDS011;34408;51.426;5.444;2023-02-15T09:23:52;23.30;;;13.27;;
48613;SDS011;34408;51.426;5.444;2023-02-15T09:26:24;22.60;;;13.55;;
48613;SDS011;34408;51.426;5.444;2023-02-15T09:28:54;23.00;;;14.60;;
48613;SDS011;34408;51.426;5.444;2023-02-15T09:31:25;23.58;;;14.25;;
48613;SDS011;34408;51.426;5.444;2023-02-15T09:33:54;23.98;;;13.45;;
48613;SDS011;34408;51.426;5.444;2023-02-15T09:36:23;24.65;;;13.20;;
48613;SDS011;34408;51.426;5.444;2023-02-15T09:38:54;25.48;;;13.50;;
48613;SDS011;34408;51.426;5.444;2023-02-15T09:41:33;21.92;;;13.82;;
48613;SDS011;34408;51.426;5.444;2023-02-15T09:44:15;21.80;;;13.32;;
48613;SDS011;34408;51.426;5.444;2023-02-15T09:46:54;20.63;;;13.57;;
48613;SDS011;34408;51.426;5.444;2023-02-15T09:49:35;21.67;;;12.93;;
48613;SDS011;34408;51.426;5.444;2023-02-15T09:52:16;21.25;;;14.35;;
48613;SDS011;34408;51.426;5.444;2023-02-15T09:54:58;23.52;;;13.68;;
48613;SDS011;34408;51.426;5.444;2023-02-15T09:57:37;20.08;;;13.05;;
48613;SDS011;34408;51.426;5.444;2023-02-15T10:00:16;23.05;;;13.27;;
48613;SDS011;34408;51.426;5.444;2023-02-15T10:03:04;22.80;;;14.55;;
48613;SDS011;34408;51.426;5.444;2023-02-15T10:08:22;20.83;;;12.75;;
48613;SDS011;34408;51.426;5.444;2023-02-15T10:11:16;22.67;;;13.13;;
48613;SDS011;34408;51.426;5.444;2023-02-15T10:14:12;23.90;;;14.15;;
48613;SDS011;34408;51.426;5.444;2023-02-15T10:16:51;24.25;;;13.98;;
48613;SDS011;34408;51.426;5.444;2023-02-15T10:19:32;24.25;;;13.77;;
48613;SDS011;34408;51.426;5.444;2023-02-15T10:22:13;23.60;;;14.70;;
48613;SDS011;34408;51.426;5.444;2023-02-15T10:24:55;29.65;;;15.82;;
48613;SDS011;34408;51.426;5.444;2023-02-15T10:27:44;24.63;;;15.15;;
48613;SDS011;34408;51.426;5.444;2023-02-15T10:30:14;22.77;;;13.90;;
48613;SDS011;34408;51.426;5.444;2023-02-15T10:32:46;22.88;;;13.50;;
48613;SDS011;34408;51.426;5.444;2023-02-15T10:35:24;36.95;;;15.98;;
48613;SDS011;34408;51.426;5.444;2023-02-15T10:38:03;25.50;;;14.63;;
48613;SDS011;34408;51.426;5.444;2023-02-15T10:43:20;24.40;;;14.68;;
48613;SDS011;34408;51.426;5.444;2023-02-15T10:46:02;28.30;;;14.45;;
48613;SDS011;34408;51.426;5.444;2023-02-15T10:48:44;24.23;;;13.77;;
48613;SDS011;34408;51.426;5.444;2023-02-15T10:51:28;22.85;;;13.82;;
48613;SDS011;34408;51.426;5.444;2023-02-15T10:54:09;26.27;;;14.27;;
48613;SDS011;34408;51.426;5.444;2023-02-15T10:56:48;24.85;;;14.25;;
48613;SDS011;34408;51.426;5.444;2023-02-15T10:59:37;29.85;;;16.38;;
48613;SDS011;34408;51.426;5.444;2023-02-15T11:02:23;24.95;;;15.30;;
48613;SDS011;34408;51.426;5.444;2023-02-15T11:05:02;26.95;;;16.38;;
48613;SDS011;34408;51.426;5.444;2023-02-15T11:07:47;24.67;;;13.00;;
48613;SDS011;34408;51.426;5.444;2023-02-15T11:10:22;26.20;;;16.17;;
48613;SDS011;34408;51.426;5.444;2023-02-15T11:12:56;24.65;;;14.65;;
48613;SDS011;34408;51.426;5.444;2023-02-15T11:15:29;29.38;;;13.88;;
48613;SDS011;34408;51.426;5.444;2023-02-15T11:18:02;23.20;;;13.52;;
48613;SDS011;34408;51.426;5.444;2023-02-15T11:20:37;23.40;;;13.38;;
48613;SDS011;34408;51.426;5.444;2023-02-15T11:23:13;21.48;;;13.52;;
48613;SDS011;34408;51.426;5.444;2023-02-15T11:25:45;26.48;;;14.35;;
48613;SDS011;34408;51.426;5.444;2023-02-15T11:28:20;24.10;;;14.25;;
48613;SDS011;34408;51.426;5.444;2023-02-15T11:30:53;26.42;;;14.90;;
48613;SDS011;34408;51.426;5.444;2023-02-15T11:33:24;30.95;;;13.55;;
48613;SDS011;34408;51.426;5.444;2023-02-15T11:35:56;27.70;;;15.60;;
48613;SDS011;34408;51.426;5.444;2023-02-15T11:38:31;23.40;;;14.48;;
48613;SDS011;34408;51.426;5.444;2023-02-15T11:41:01;24.42;;;14.63;;
48613;SDS011;34408;51.426;5.444;2023-02-15T11:43:33;30.00;;;17.13;;
48613;SDS011;34408;51.426;5.444;2023-02-15T11:46:05;29.20;;;15.60;;
48613;SDS011;34408;51.426;5.444;2023-02-15T11:48:38;26.38;;;16.80;;
48613;SDS011;34408;51.426;5.444;2023-02-15T11:51:08;26.25;;;14.15;;
48613;SDS011;34408;51.426;5.444;2023-02-15T11:53:43;27.95;;;16.80;;
48613;SDS011;34408;51.426;5.444;2023-02-15T11:56:13;32.95;;;16.38;;
48613;SDS011;34408;51.426;5.444;2023-02-15T11:58:43;25.08;;;14.70;;
48613;SDS011;34408;51.426;5.444;2023-02-15T12:01:16;22.27;;;14.27;;
48613;SDS011;34408;51.426;5.444;2023-02-15T12:03:46;27.10;;;15.13;;
48613;SDS011;34408;51.426;5.444;2023-02-15T12:06:17;26.10;;;14.63;;
48613;SDS011;34408;51.426;5.444;2023-02-15T12:08:54;26.08;;;15.05;;
48613;SDS011;34408;51.426;5.444;2023-02-15T12:11:29;25.30;;;14.05;;
48613;SDS011;34408;51.426;5.444;2023-02-15T12:14:02;30.42;;;15.50;;
48613;SDS011;34408;51.426;5.444;2023-02-15T12:16:32;27.63;;;15.50;;
48613;SDS011;34408;51.426;5.444;2023-02-15T12:19:11;26.33;;;14.30;;
48613;SDS011;34408;51.426;5.444;2023-02-15T12:21:49;25.58;;;13.82;;
48613;SDS011;34408;51.426;5.444;2023-02-15T12:24:21;25.38;;;14.18;;
48613;SDS011;34408;51.426;5.444;2023-02-15T12:26:59;26.52;;;13.85;;
48613;SDS011;34408;51.426;5.444;2023-02-15T12:29:30;27.15;;;15.05;;
48613;SDS011;34408;51.426;5.444;2023-02-15T12:32:02;26.60;;;14.85;;
48613;SDS011;34408;51.426;5.444;2023-02-15T12:34:31;26.20;;;15.07;;
48613;SDS011;34408;51.426;5.444;2023-02-15T12:37:09;29.25;;;14.05;;
48613;SDS011;34408;51.426;5.444;2023-02-15T12:39:40;24.90;;;15.30;;
48613;SDS011;34408;51.426;5.444;2023-02-15T12:42:19;25.88;;;14.57;;
48613;SDS011;34408;51.426;5.444;2023-02-15T12:44:58;25.63;;;14.27;;
48613;SDS011;34408;51.426;5.444;2023-02-15T12:47:27;24.08;;;14.93;;
48613;SDS011;34408;51.426;5.444;2023-02-15T12:50:07;25.73;;;14.07;;
48613;SDS011;34408;51.426;5.444;2023-02-15T12:52:44;32.72;;;14.40;;
48613;SDS011;34408;51.426;5.444;2023-02-15T12:55:20;26.67;;;14.77;;
48613;SDS011;34408;51.426;5.444;2023-02-15T12:58:04;25.83;;;14.27;;
48613;SDS011;34408;51.426;5.444;2023-02-15T13:00:33;26.55;;;14.45;;
48613;SDS011;34408;51.426;5.444;2023-02-15T13:03:01;36.67;;;15.52;;
48613;SDS011;34408;51.426;5.444;2023-02-15T13:05:31;23.27;;;13.75;;
48613;SDS011;34408;51.426;5.444;2023-02-15T13:08:04;28.85;;;14.95;;
48613;SDS011;34408;51.426;5.444;2023-02-15T13:10:41;28.35;;;14.40;;
48613;SDS011;34408;51.426;5.444;2023-02-15T13:13:19;22.98;;;13.95;;
48613;SDS011;34408;51.426;5.444;2023-02-15T13:15:50;24.13;;;13.10;;
48613;SDS011;34408;51.426;5.444;2023-02-15T13:18:23;23.63;;;12.32;;
48613;SDS011;34408;51.426;5.444;2023-02-15T13:20:58;21.40;;;12.43;;
48613;SDS011;34408;51.426;5.444;2023-02-15T13:23:37;25.30;;;13.00;;
48613;SDS011;34408;51.426;5.444;2023-02-15T13:26:11;19.73;;;11.55;;
48613;SDS011;34408;51.426;5.444;2023-02-15T13:28:44;22.17;;;12.65;;
48613;SDS011;34408;51.426;5.444;2023-02-15T13:31:15;24.00;;;13.18;;
48613;SDS011;34408;51.426;5.444;2023-02-15T13:33:46;24.85;;;12.07;;
48613;SDS011;34408;51.426;5.444;2023-02-15T13:36:19;22.67;;;12.65;;
48613;SDS011;34408;51.426;5.444;2023-02-15T13:38:56;24.13;;;12.43;;
48613;SDS011;34408;51.426;5.444;2023-02-15T13:41:33;26.65;;;13.15;;
48613;SDS011;34408;51.426;5.444;2023-02-15T13:44:15;22.42;;;12.73;;
48613;SDS011;34408;51.426;5.444;2023-02-15T13:47:01;20.90;;;13.05;;
48613;SDS011;34408;51.426;5.444;2023-02-15T13:49:42;22.50;;;12.77;;
48613;SDS011;34408;51.426;5.444;2023-02-15T13:52:20;24.23;;;13.15;;
48613;SDS011;34408;51.426;5.444;2023-02-15T13:58:08;21.80;;;12.18;;
48613;SDS011;34408;51.426;5.444;2023-02-15T14:00:56;21.02;;;12.55;;
48613;SDS011;34408;51.426;5.444;2023-02-15T14:03:45;23.45;;;12.93;;
48613;SDS011;34408;51.426;5.444;2023-02-15T14:06:43;22.83;;;12.43;;
48613;SDS011;34408;51.426;5.444;2023-02-15T14:09:20;25.08;;;13.55;;
48613;SDS011;34408;51.426;5.444;2023-02-15T14:12:01;19.25;;;11.57;;
48613;SDS011;34408;51.426;5.444;2023-02-15T14:14:44;22.88;;;12.25;;
48613;SDS011;34408;51.426;5.444;2023-02-15T14:17:29;24.20;;;13.07;;
48613;SDS011;34408;51.426;5.444;2023-02-15T14:20:07;23.95;;;13.98;;
48613;SDS011;34408;51.426;5.444;2023-02-15T14:22:47;27.45;;;14.38;;
48613;SDS011;34408;51.426;5.444;2023-02-15T14:25:25;22.73;;;13.25;;
48613;SDS011;34408;51.426;5.444;2023-02-15T14:27:56;25.52;;;13.52;;
48613;SDS011;34408;51.426;5.444;2023-02-15T14:30:33;28.02;;;14.52;;
48613;SDS011;34408;51.426;5.444;2023-02-15T14:33:05;30.70;;;16.13;;
48613;SDS011;34408;51.426;5.444;2023-02-15T14:35:35;30.30;;;15.68;;
48613;SDS011;34408;51.426;5.444;2023-02-15T14:38:05;31.48;;;15.80;;
48613;SDS011;34408;51.426;5.444;2023-02-15T14:40:42;29.88;;;15.32;;
48613;SDS011;34408;51.426;5.444;2023-02-15T14:43:31;30.10;;;16.80;;
48613;SDS011;34408;51.426;5.444;2023-02-15T14:46:12;32.42;;;15.85;;
48613;SDS011;34408;51.426;5.444;2023-02-15T14:48:49;29.67;;;16.70;;
48613;SDS011;34408;51.426;5.444;2023-02-15T14:51:53;29.73;;;15.98;;
48613;SDS011;34408;51.426;5.444;2023-02-15T14:57:25;31.85;;;15.43;;
48613;SDS011;34408;51.426;5.444;2023-02-15T15:00:00;27.60;;;15.73;;
48613;SDS011;34408;51.426;5.444;2023-02-15T15:02:41;28.65;;;15.23;;
48613;SDS011;34408;51.426;5.444;2023-02-15T15:05:17;26.60;;;14.57;;
48613;SDS011;34408;51.426;5.444;2023-02-15T15:07:47;29.13;;;13.73;;
48613;SDS011;34408;51.426;5.444;2023-02-15T15:18:59;23.95;;;13.60;;